map of ALY home
Great Circle Mapper logo
ALY - Airport
Location
City:  Alexandria, Egypt
Name:Alexandria International Airport
Old (Alt.):El Nouzha Airport
ICAO / IATA:HEAX / ALY

Details
Type:Airport (Aerodrome, Airfield)
Use:Public/Civil, International (customs port of entry)
Latitude:3111'02"N (31.183903)
Longitude:2956'56"E (29.948889)
Datum:WGS 1984
Elevation:-6 ft (-1 m)
Runways:2
Longest:7221 × 148 ft (2201 × 45 m), paved

Time
Time Zone:UTC+2
Local Time:

Weather
METAR:HEAX 010100Z 00000KT CAVOK 15/14 Q1014 NOSIG
TAF:HEAX 311700Z 3118/0124 28010KT 9999 SCT020
TEMPO 3118/3124 8000 -RA BKN020
TEMPO 0100/0106 VRB03KT 3000BR NSC

Related Locations
Nearby:
Farthest:NTAV: 11908 mi / 19163 km
Raivavae, Tubuai Islands, Austral Islands, PF

Find:

   beyond  
but within

Other Information
Maps:
NOTAMs:
Links:
Sources:

  
flag of Egypt   

Airport Diagram

Airport diagram for ALY

Airport diagram (OBSOLETE) from NGA

Sectional Chart

Flight Planning
at skyvector.com

Satellite Image

Google Maps Satellite View

 

Copyright © 2004-2014 Karl L. Swartz. All rights reserved.
The Great Circle Mapper name and logo are trademarks of the Great Circle Mapper.
All other trademarks mentioned herein belong to their respective owners.
Please see credits for attibutions and further copyright information.

  Follow gcmap on Facebook Follow gcmap on Twitter

hCard Microformat

Geo Microformat